メインページ
METAR-TAF:

METAR-TAF

空港 :

スタンリー, フォークランド諸島

マウント・プレザント空軍基地

緯度: 51-49S, 経度: 058-27W, 海抜: 74m

現時点の気象観測

当レポートは34分前の16:50(UTC)に作成
西/北西の風 29kt
気温 8°C
湿度 61%
気圧 994 hPa
視程10km以上
高度3200ftの雲はほとんどない

METAR: EGYP 231650Z 29029KT 9999 FEW032 08/01 Q0994 BLU NOSIG

時間: 14:24 (17:24 UTC)

予報

当レポートは4時間4分前の13:20(UTC)に作成
予報は23日の 15時(UTC)から 24日の 09時(UTC)まで有効
北西の風 20kt、最大30ktの突風を伴う
視程10km以上
高度4000ftの雲は散在している
確率 30% :
23日の 15時(UTC)から 23日の 21時(UTC)まで一時的に
北西の風 30kt、最大40ktの突風を伴う
24日の 00時(UTC)から 24日の 03時(UTC)まで徐々に
北/北西の風 20kt、最大30ktの突風を伴う
24日の 03時(UTC)から 24日の 06時(UTC)まで徐々に
の風 20kt、最大30ktの突風を伴う
確率 40% :
24日の 03時(UTC)から 24日の 09時(UTC)まで一時的に
の風 30kt、最大40ktの突風を伴う
確率 30% :
24日の 03時(UTC)から 24日の 09時(UTC)まで一時的に
変向風 8kt
高度800ftの雲は散在している

TAF: EGYP 231320Z 2315/2409 31020G30KT 9999 SCT040 PROB30 TEMPO 2315/2321 31030G40KT BECMG 2400/2403 34020G30KT BECMG 2403/2406 01020G30KT 520003 PROB40 TEMPO 2403/2409 01030G40KT 530003 PROB30 TEMPO 2403/2409 VRB08KT SCT008 560003

4,000以上の空港の気象観測と天気予報(METAR報とTAF報)

利用可能な観測所は地図上に黄色い丸と赤い丸で示す。

丸の上にカーソルを重ねると観測所名を参照できる。

次にクリックすると気象観測と天気予報を参照できる。

マップの切り替え:黒色「×」印の緑ボタンをクリックして拡大、「-」印の緑ボタンをクリックして縮小、緑色の三角印をクリックして隣りの地図に切り替え


METAR-TAF: